Time;durP1;ratioP1;P1;durP2;ratioP2;P2;SDS_P1;SDS_P2;PMS_P1;PMS_P2;Temp;Humidity;BMP_temperature;BMP_pressure;BME280_temperature;BME280_humidity;BME280_pressure;Samples;Min_cycle;Max_cycle;Signal;HPM_P1;HPM_P2
2023/07/20 00:00:36;;;;;;;8.77;3.60;;;;;;;24.83;42.53;98224.13;2111717;28;20112;-83
2023/07/20 00:01:38;;;;;;;7.75;2.72;;;;;;;24.82;42.13;98227.06;2109048;28;20040;-85
2023/07/20 00:02:40;;;;;;;8.77;4.30;;;;;;;24.77;42.23;98218.88;2110564;28;20040;-83
2023/07/20 00:03:41;;;;;;;6.35;3.20;;;;;;;24.79;42.45;98230.28;2109845;28;20071;-83
2023/07/20 00:04:43;;;;;;;5.90;3.35;;;;;;;24.66;42.41;98216.06;2111388;28;20052;-84
2023/07/20 00:05:47;;;;;;;5.43;3.47;;;;;;;24.75;41.72;98221.84;2112381;27;20423;-83
2023/07/20 00:06:49;;;;;;;8.07;3.90;;;;;;;24.69;41.85;98218.25;2111284;28;20073;-85
2023/07/20 00:07:51;;;;;;;8.05;4.30;;;;;;;24.73;42.06;98218.56;2110754;27;20055;-83
2023/07/20 00:08:55;;;;;;;5.28;2.60;;;;;;;24.66;42.21;98223.38;2114054;27;20051;-83
2023/07/20 00:09:57;;;;;;;7.32;3.60;;;;;;;24.62;42.20;98222.22;2115013;28;20048;-85
2023/07/20 00:10:59;;;;;;;8.40;3.17;;;;;;;24.67;41.77;98220.41;2115886;28;20092;-84
2023/07/20 00:12:00;;;;;;;7.70;3.20;;;;;;;24.65;41.69;98225.25;2117157;28;20331;-82
2023/07/20 00:13:01;;;;;;;11.68;3.05;;;;;;;24.62;41.76;98231.19;2118202;27;20048;-84
2023/07/20 00:14:02;;;;;;;6.47;3.35;;;;;;;24.58;41.85;98223.81;2116439;28;20043;-83
2023/07/20 00:15:05;;;;;;;8.75;3.38;;;;;;;24.58;42.01;98234.66;2113377;27;20820;-83
2023/07/20 00:16:06;;;;;;;7.53;3.25;;;;;;;24.62;41.72;98236.59;2110864;28;20043;-83
2023/07/20 00:17:07;;;;;;;8.15;3.88;;;;;;;24.58;41.97;98238.19;2110368;28;20146;-83
2023/07/20 00:18:09;;;;;;;3.63;2.50;;;;;;;24.55;42.08;98230.56;2110718;28;20048;-83
2023/07/20 00:19:10;;;;;;;5.88;4.15;;;;;;;24.58;42.13;98232.78;2111962;27;20541;-82
2023/07/20 00:20:12;;;;;;;4.68;2.72;;;;;;;24.54;42.10;98226.19;2110463;27;20126;-82
2023/07/20 00:21:13;;;;;;;5.10;3.15;;;;;;;24.52;42.27;98222.94;2105915;28;20040;-83
2023/07/20 00:22:14;;;;;;;9.98;4.13;;;;;;;24.46;42.05;98223.94;2109601;28;20446;-84
2023/07/20 00:23:16;;;;;;;7.75;2.90;;;;;;;24.50;42.29;98233.22;2103698;28;20064;-83
2023/07/20 00:24:18;;;;;;;8.43;2.75;;;;;;;24.50;41.90;98225.91;2101880;28;20044;-84
2023/07/20 00:25:20;;;;;;;9.00;2.83;;;;;;;24.45;42.10;98228.53;2102605;28;20051;-84
2023/07/20 00:26:21;;;;;;;6.25;3.65;;;;;;;24.52;42.22;98237.31;2101175;28;20052;-83
2023/07/20 00:27:23;;;;;;;6.93;3.05;;;;;;;24.50;42.33;98230.50;2102878;28;20109;-83
2023/07/20 00:28:24;;;;;;;6.90;3.00;;;;;;;24.50;42.50;98234.03;2101519;28;20055;-83
2023/07/20 00:29:26;;;;;;;6.63;3.38;;;;;;;24.48;42.64;98224.50;2105944;28;20067;-83
2023/07/20 00:30:27;;;;;;;6.60;3.92;;;;;;;24.48;42.90;98228.03;2109566;28;20048;-84
2023/07/20 00:31:29;;;;;;;5.50;3.33;;;;;;;24.51;42.70;98230.22;2109876;27;20066;-83
2023/07/20 00:32:30;;;;;;;5.60;3.35;;;;;;;24.47;42.87;98220.16;2111570;27;20093;-84
2023/07/20 00:33:32;;;;;;;5.50;3.20;;;;;;;24.46;43.22;98221.22;2109609;28;20043;-84
2023/07/20 00:34:33;;;;;;;8.05;3.97;;;;;;;24.48;43.08;98216.38;2111743;28;20048;-83
2023/07/20 00:35:35;;;;;;;8.05;2.83;;;;;;;24.44;43.24;98215.25;2110672;28;20048;-83
2023/07/20 00:36:36;;;;;;;6.63;2.80;;;;;;;24.48;43.23;98217.19;2104766;28;20052;-84
2023/07/20 00:37:37;;;;;;;5.15;2.78;;;;;;;24.44;43.24;98212.53;2109469;27;20129;-83
2023/07/20 00:38:38;;;;;;;11.93;3.33;;;;;;;24.50;43.32;98225.91;2109170;27;20051;-83
2023/07/20 00:39:42;;;;;;;8.48;2.85;;;;;;;24.48;43.28;98206.34;2109422;28;20036;-83
2023/07/20 00:40:43;;;;;;;6.00;4.00;;;;;;;24.49;43.64;98216.13;2110545;27;20139;-83
2023/07/20 00:41:43;;;;;;;4.22;2.83;;;;;;;24.51;43.40;98210.44;2110211;27;20047;-84
2023/07/20 00:42:45;;;;;;;8.70;4.05;;;;;;;24.40;43.85;98201.31;2110688;28;20141;-83
2023/07/20 00:43:46;;;;;;;6.55;2.88;;;;;;;24.44;43.87;98209.81;2102681;28;20055;-83
2023/07/20 00:44:48;;;;;;;4.68;3.22;;;;;;;24.48;43.86;98202.81;2101983;28;20080;-83
2023/07/20 00:45:49;;;;;;;8.25;3.47;;;;;;;24.38;43.72;98192.66;2110758;28;20134;-83
2023/07/20 00:46:51;;;;;;;4.68;2.78;;;;;;;24.45;43.76;98200.63;2111170;28;20055;-84
2023/07/20 00:47:52;;;;;;;5.05;3.00;;;;;;;24.42;43.74;98185.63;2108858;27;20479;-84
2023/07/20 00:48:54;;;;;;;3.30;2.83;;;;;;;24.40;43.79;98185.06;2111013;28;20126;-83
2023/07/20 00:49:55;;;;;;;5.38;2.88;;;;;;;24.42;43.75;98182.94;2111280;28;20047;-83
2023/07/20 00:50:59;;;;;;;7.50;3.17;;;;;;;24.40;43.53;98176.94;2110675;28;20100;-83
2023/07/20 00:52:01;;;;;;;4.32;2.53;;;;;;;24.44;43.57;98180.00;2108952;28;20047;-84
2023/07/20 00:53:05;;;;;;;4.85;2.78;;;;;;;24.38;43.81;98181.00;2110608;28;20134;-83
2023/07/20 00:54:06;;;;;;;3.88;2.60;;;;;;;24.38;43.76;98179.09;2110384;28;20036;-83
2023/07/20 00:55:10;;;;;;;4.03;2.88;;;;;;;24.41;43.82;98184.00;2109068;28;20061;-83
2023/07/20 00:56:11;;;;;;;4.93;2.83;;;;;;;24.35;44.02;98178.75;2109664;28;20047;-83
2023/07/20 00:57:16;;;;;;;7.80;2.85;;;;;;;24.40;44.12;98179.63;2101711;28;20051;-83
2023/07/20 00:58:16;;;;;;;5.40;3.03;;;;;;;24.37;43.95;98171.22;2104189;28;20075;-83
2023/07/20 00:59:18;;;;;;;7.13;3.00;;;;;;;24.37;43.82;98179.34;2101812;28;20040;-82
2023/07/20 01:00:19;;;;;;;7.93;3.58;;;;;;;24.37;44.12;98180.16;2102658;28;20047;-83
2023/07/20 01:01:21;;;;;;;7.28;2.70;;;;;;;24.35;43.96;98173.34;2106332;28;20048;-82
2023/07/20 01:02:22;;;;;;;6.05;2.63;;;;;;;24.40;43.88;98178.81;2112086;28;20070;-83
2023/07/20 01:03:24;;;;;;;4.40;3.15;;;;;;;24.28;43.80;98168.13;2105746;28;20059;-83
2023/07/20 01:04:26;;;;;;;5.13;3.00;;;;;;;24.33;44.12;98180.94;2108314;28;20057;-84
2023/07/20 01:05:39;;;;;;;5.80;3.25;;;;;;;24.38;43.78;98175.56;2102507;28;20131;-82
2023/07/20 01:06:50;;;;;;;5.78;2.60;;;;;;;24.31;44.20;98170.31;2102005;28;20072;-84
2023/07/20 01:07:58;;;;;;;5.13;2.72;;;;;;;24.33;44.28;98178.22;2100712;28;20056;-82
2023/07/20 01:09:09;;;;;;;8.15;3.47;;;;;;;24.33;43.95;98176.31;2100471;28;20055;-83
2023/07/20 01:10:17;;;;;;;4.53;2.70;;;;;;;24.29;44.17;98165.16;2098399;28;20048;-83
2023/07/20 01:11:26;;;;;;;8.60;2.50;;;;;;;24.25;44.10;98158.59;2100877;28;22531;-83
2023/07/20 01:12:35;;;;;;;2.28;1.95;;;;;;;24.20;44.38;98149.59;2102377;28;20040;-83
2023/07/20 01:13:37;;;;;;;5.35;3.13;;;;;;;24.24;44.38;98156.97;2103158;28;20071;-82
2023/07/20 01:14:39;;;;;;;6.50;3.35;;;;;;;24.27;44.14;98158.34;2094253;28;20047;-84
2023/07/20 01:15:40;;;;;;;5.82;3.15;;;;;;;24.26;44.13;98157.53;2102408;28;20044;-83
2023/07/20 01:16:42;;;;;;;6.82;2.85;;;;;;;24.28;43.94;98160.81;2102724;28;20050;-83
2023/07/20 01:17:44;;;;;;;5.57;2.75;;;;;;;24.27;44.25;98161.88;2110179;28;20063;-83
2023/07/20 01:18:46;;;;;;;4.65;2.95;;;;;;;24.26;44.22;98165.66;2107856;28;20040;-83
2023/07/20 01:19:50;;;;;;;7.15;3.08;;;;;;;24.20;44.15;98155.00;2108492;28;20538;-84
2023/07/20 01:20:57;;;;;;;4.32;3.58;;;;;;;24.21;44.36;98145.78;2103423;28;20052;-83
2023/07/20 01:22:02;;;;;;;3.80;2.45;;;;;;;24.20;44.37;98144.16;2109004;28;20494;-83
2023/07/20 01:23:45;;;;;;;7.95;2.78;;;;;;;24.11;44.66;98151.91;2101498;28;20048;-84
2023/07/20 01:25:12;;;;;;;6.18;2.72;;;;;;;24.10;44.36;98153.00;2051215;28;20061;-82
2023/07/20 01:26:37;;;;;;;4.03;3.03;;;;;;;24.08;44.42;98157.84;2100923;28;20118;-85
2023/07/20 01:28:17;;;;;;;4.05;2.80;;;;;;;24.12;44.58;98158.16;2100540;28;20075;-83
2023/07/20 01:29:50;;;;;;;3.97;2.28;;;;;;;24.09;44.61;98162.19;2054306;28;20042;-84
2023/07/20 01:30:59;;;;;;;6.25;2.70;;;;;;;24.09;44.17;98154.06;2076131;28;20144;-84
2023/07/20 01:32:07;;;;;;;5.45;3.75;;;;;;;24.13;44.09;98166.03;2103703;28;20051;-82
2023/07/20 01:33:08;;;;;;;4.38;2.65;;;;;;;24.15;44.32;98161.16;2110011;28;20663;-82
2023/07/20 01:34:16;;;;;;;4.88;2.75;;;;;;;24.16;44.38;98154.69;2108773;28;20051;-83
2023/07/20 01:35:20;;;;;;;4.72;2.60;;;;;;;24.15;44.72;98152.22;2104944;28;20040;-82
2023/07/20 01:36:23;;;;;;;10.30;3.00;;;;;;;24.18;44.60;98155.28;2106728;28;20119;-83
2023/07/20 01:37:29;;;;;;;7.07;2.88;;;;;;;24.07;44.67;98151.63;2109726;28;20166;-83
2023/07/20 01:38:30;;;;;;;10.18;2.97;;;;;;;24.13;44.57;98162.53;2110543;28;20036;-83
2023/07/20 01:39:36;;;;;;;3.13;2.38;;;;;;;24.08;44.50;98153.25;2110042;28;20549;-83
2023/07/20 01:40:38;;;;;;;5.93;2.75;;;;;;;24.15;44.34;98154.94;2110587;27;20137;-84
2023/07/20 01:41:40;;;;;;;10.73;2.40;;;;;;;24.16;44.51;98164.72;2111254;28;20583;-83
2023/07/20 01:42:45;;;;;;;4.95;2.97;;;;;;;24.11;44.55;98161.94;2109593;28;20043;-82
2023/07/20 01:43:46;;;;;;;6.05;2.55;;;;;;;24.07;44.76;98158.91;2108715;28;20043;-83
2023/07/20 01:44:48;;;;;;;5.78;2.53;;;;;;;24.15;44.50;98154.94;2109144;28;20525;-83
2023/07/20 01:45:49;;;;;;;4.63;2.75;;;;;;;24.05;44.58;98158.34;2110367;28;20040;-83
2023/07/20 01:46:50;;;;;;;5.55;3.15;;;;;;;24.06;44.74;98157.28;2109696;28;20039;-83
2023/07/20 01:47:52;;;;;;;3.08;2.25;;;;;;;24.09;44.74;98156.75;2111099;28;20134;-83
2023/07/20 01:48:55;;;;;;;5.78;2.53;;;;;;;24.08;44.96;98152.44;2110326;28;20043;-82
2023/07/20 01:49:56;;;;;;;8.30;2.65;;;;;;;24.07;44.81;98161.59;2109954;28;20079;-83
2023/07/20 01:50:57;;;;;;;3.05;2.30;;;;;;;24.10;44.80;98166.53;2112338;28;20082;-82
2023/07/20 01:51:59;;;;;;;3.33;2.53;;;;;;;24.11;45.02;98165.47;2107327;28;20407;-83
2023/07/20 01:53:00;;;;;;;5.40;2.60;;;;;;;24.10;45.12;98161.13;2101296;28;20048;-83
2023/07/20 01:54:01;;;;;;;3.70;2.20;;;;;;;24.06;45.17;98165.41;2101530;28;20697;-83
2023/07/20 01:55:04;;;;;;;5.40;2.97;;;;;;;24.07;44.95;98158.91;2100789;28;20044;-83
2023/07/20 01:56:06;;;;;;;8.60;3.28;;;;;;;24.09;44.80;98159.47;2101742;28;20052;-83
2023/07/20 01:57:07;;;;;;;4.93;2.47;;;;;;;24.07;45.12;98148.06;2101440;28;20683;-83
2023/07/20 01:58:08;;;;;;;6.57;3.33;;;;;;;24.07;44.92;98143.47;2102037;28;21580;-82
2023/07/20 01:59:09;;;;;;;8.82;2.80;;;;;;;24.09;45.15;98148.63;2102409;28;20052;-83
2023/07/20 02:00:12;;;;;;;4.60;2.63;;;;;;;24.10;44.73;98144.88;2101480;28;20121;-83
2023/07/20 02:01:13;;;;;;;4.38;2.42;;;;;;;24.03;44.83;98136.09;2102745;28;20047;-82
2023/07/20 02:02:15;;;;;;;4.55;2.85;;;;;;;23.99;45.03;98138.50;2107305;28;20102;-83
2023/07/20 02:03:17;;;;;;;7.57;4.05;;;;;;;24.05;44.84;98137.50;2110608;28;20048;-83
2023/07/20 02:04:19;;;;;;;7.35;2.63;;;;;;;24.04;45.01;98151.28;2102870;28;20059;-82
2023/07/20 02:05:20;;;;;;;7.03;2.65;;;;;;;24.02;45.39;98148.00;2092937;28;20697;-83
2023/07/20 02:06:22;;;;;;;5.03;2.78;;;;;;;24.06;45.15;98149.13;2101364;28;20044;-83
2023/07/20 02:07:22;;;;;;;5.82;2.63;;;;;;;24.01;45.18;98146.34;2101490;28;20048;-82
2023/07/20 02:08:24;;;;;;;8.65;2.25;;;;;;;24.00;45.26;98142.03;2102046;28;20071;-83
2023/07/20 02:09:25;;;;;;;2.75;2.10;;;;;;;24.00;45.31;98150.16;2101105;28;20128;-82
2023/07/20 02:10:27;;;;;;;3.65;2.00;;;;;;;24.02;44.99;98150.72;2100059;28;20366;-82
2023/07/20 02:11:28;;;;;;;7.05;2.78;;;;;;;24.01;45.08;98147.16;2101048;28;20059;-83
2023/07/20 02:12:29;;;;;;;3.08;2.50;;;;;;;23.97;45.12;98143.34;2097240;28;20054;-82
2023/07/20 02:13:30;;;;;;;4.03;3.08;;;;;;;23.99;45.27;98157.47;2101318;28;21018;-83
2023/07/20 02:14:32;;;;;;;7.28;2.80;;;;;;;23.94;45.47;98148.44;2107983;28;20043;-83
2023/07/20 02:15:33;;;;;;;5.63;2.58;;;;;;;23.94;45.20;98162.00;2100218;28;20044;-83
2023/07/20 02:16:35;;;;;;;4.10;2.60;;;;;;;23.94;45.19;98157.38;2102127;28;20040;-82
2023/07/20 02:17:37;;;;;;;6.05;3.08;;;;;;;23.92;45.36;98156.00;2101488;28;20051;-83
2023/07/20 02:18:40;;;;;;;5.47;2.35;;;;;;;23.95;45.07;98152.78;2101597;28;20119;-83
2023/07/20 02:19:41;;;;;;;5.57;3.10;;;;;;;23.91;44.97;98162.50;2099096;28;20693;-83
2023/07/20 02:20:43;;;;;;;5.20;2.58;;;;;;;23.91;45.19;98162.50;2102045;28;20067;-85
2023/07/20 02:21:44;;;;;;;3.88;2.17;;;;;;;23.90;44.96;98158.13;2102548;28;20063;-84
2023/07/20 02:22:46;;;;;;;5.70;2.53;;;;;;;23.88;44.90;98157.56;2099783;28;20473;-82
2023/07/20 02:23:47;;;;;;;9.32;3.20;;;;;;;23.90;44.97;98168.97;2100978;28;20134;-82
2023/07/20 02:24:48;;;;;;;3.88;2.30;;;;;;;23.92;45.32;98164.94;2103038;28;20055;-82
2023/07/20 02:25:49;;;;;;;6.18;2.30;;;;;;;23.93;45.14;98165.75;2102499;28;20040;-82
2023/07/20 02:26:50;;;;;;;3.40;2.03;;;;;;;23.90;44.97;98160.84;2104079;28;20037;-82
2023/07/20 02:27:52;;;;;;;4.75;3.47;;;;;;;23.94;45.12;98156.56;2109853;28;20052;-82
2023/07/20 02:28:54;;;;;;;3.50;2.33;;;;;;;23.85;45.06;98162.41;2110659;28;20078;-83
2023/07/20 02:29:55;;;;;;;3.50;2.78;;;;;;;23.88;45.10;98157.56;2110213;28;20581;-83
2023/07/20 02:30:56;;;;;;;5.05;3.05;;;;;;;23.88;45.20;98158.41;2111474;28;20059;-82
2023/07/20 02:31:57;;;;;;;4.25;2.17;;;;;;;23.78;45.16;98147.41;2110828;28;20426;-83
2023/07/20 02:32:59;;;;;;;4.95;2.35;;;;;;;23.84;45.11;98152.63;2110256;28;20109;-82
2023/07/20 02:34:01;;;;;;;4.78;3.10;;;;;;;23.88;44.81;98157.56;2111290;28;20039;-82
2023/07/20 02:35:04;;;;;;;3.22;2.42;;;;;;;23.85;45.29;98161.59;2109653;28;20518;-82
2023/07/20 02:36:05;;;;;;;5.80;2.42;;;;;;;23.84;45.18;98163.47;2107799;28;20117;-83
2023/07/20 02:37:07;;;;;;;4.22;2.17;;;;;;;23.84;45.22;98147.22;2109631;28;20044;-82
2023/07/20 02:38:08;;;;;;;3.15;2.60;;;;;;;23.84;45.24;98162.66;2095564;28;20118;-82
2023/07/20 02:39:10;;;;;;;3.58;2.22;;;;;;;23.79;44.93;98151.75;2092111;28;20047;-82
2023/07/20 02:40:11;;;;;;;5.07;2.67;;;;;;;23.76;44.97;98141.41;2108435;28;20036;-82
2023/07/20 02:41:14;;;;;;;4.80;2.78;;;;;;;23.77;45.18;98153.91;2109506;28;20063;-82
2023/07/20 02:42:15;;;;;;;3.95;1.80;;;;;;;23.75;45.11;98162.25;2110164;28;20067;-82
2023/07/20 02:43:17;;;;;;;4.75;1.70;;;;;;;23.78;45.01;98159.06;2110409;28;20031;-84
2023/07/20 02:44:17;;;;;;;4.95;2.00;;;;;;;23.76;45.23;98161.19;2109856;28;20044;-83
2023/07/20 02:45:19;;;;;;;4.40;2.33;;;;;;;23.77;45.08;98157.44;2109228;28;20039;-84
2023/07/20 02:46:20;;;;;;;4.93;2.67;;;;;;;23.76;45.40;98163.88;2108995;28;20146;-82
2023/07/20 02:47:22;;;;;;;4.18;2.38;;;;;;;23.77;45.10;98164.72;2110469;27;20415;-82
2023/07/20 02:48:23;;;;;;;4.80;2.50;;;;;;;23.73;45.19;98156.25;2111527;27;20047;-83
2023/07/20 02:49:26;;;;;;;3.80;1.77;;;;;;;23.75;44.87;98159.56;2111032;27;20517;-82
2023/07/20 02:50:27;;;;;;;3.58;2.13;;;;;;;23.74;45.18;98168.75;2111660;28;20048;-84
2023/07/20 02:51:29;;;;;;;8.52;3.15;;;;;;;23.74;45.15;98157.94;2111340;28;20047;-82
2023/07/20 02:52:29;;;;;;;5.20;2.67;;;;;;;23.66;45.17;98160.22;2112117;27;20598;-82
2023/07/20 02:53:31;;;;;;;5.00;2.63;;;;;;;23.67;45.41;98162.66;2111995;28;20040;-83
2023/07/20 02:54:32;;;;;;;2.65;1.83;;;;;;;23.67;45.32;98159.94;2113412;28;20071;-83
2023/07/20 02:55:34;;;;;;;5.60;2.75;;;;;;;23.72;45.04;98162.75;2111080;27;20047;-83
2023/07/20 02:56:35;;;;;;;7.85;2.22;;;;;;;23.72;45.17;98165.47;2110704;27;20063;-83
2023/07/20 02:57:36;;;;;;;9.35;2.47;;;;;;;23.69;45.40;98155.09;2111208;27;20059;-83
2023/07/20 02:58:43;;;;;;;4.15;2.25;;;;;;;23.65;45.13;98148.53;2110914;28;20044;-83
2023/07/20 02:59:45;;;;;;;4.82;3.08;;;;;;;23.71;45.13;98153.00;2111436;28;20119;-81
2023/07/20 03:00:45;;;;;;;8.85;2.83;;;;;;;23.65;45.42;98145.81;2111253;28;20623;-82
2023/07/20 03:01:47;;;;;;;5.10;2.25;;;;;;;23.67;45.27;98151.81;2109708;27;20054;-83
2023/07/20 03:02:48;;;;;;;4.88;2.90;;;;;;;24.07;44.70;98150.75;2100139;28;20853;-83
2023/07/20 03:03:50;;;;;;;3.90;2.03;;;;;;;24.46;44.22;98150.72;2102733;28;20048;-83
2023/07/20 03:04:54;;;;;;;5.13;2.33;;;;;;;24.73;43.38;98161.63;2110770;27;20048;-82
2023/07/20 03:05:59;;;;;;;5.45;2.55;;;;;;;24.96;43.03;98160.47;2108967;27;20051;-82
2023/07/20 03:06:59;;;;;;;4.53;2.20;;;;;;;25.14;43.02;98159.31;2101883;28;20052;-82
2023/07/20 03:08:02;;;;;;;5.75;3.85;;;;;;;25.28;42.78;98152.41;2104150;28;20104;-83
2023/07/20 03:09:03;;;;;;;3.70;2.10;;;;;;;25.43;42.54;98146.25;2108421;28;20602;-82
2023/07/20 03:10:08;;;;;;;2.88;1.98;;;;;;;25.43;45.47;98146.25;2110618;27;20692;-83
2023/07/20 03:11:09;;;;;;;4.53;2.33;;;;;;;25.21;44.92;98154.50;2110768;28;20402;-83
2023/07/20 03:12:11;;;;;;;2.35;1.90;;;;;;;24.88;44.57;98152.84;2109150;27;20043;-83
2023/07/20 03:13:12;;;;;;;2.38;1.90;;;;;;;24.44;44.11;98159.13;2111334;27;20644;-82
2023/07/20 03:14:14;;;;;;;3.58;1.85;;;;;;;24.11;43.76;98157.34;2111292;28;20091;-83
2023/07/20 03:15:15;;;;;;;7.15;2.65;;;;;;;23.90;43.54;98158.13;2110596;27;20584;-82
2023/07/20 03:16:19;;;;;;;3.78;2.60;;;;;;;23.64;42.87;98152.31;2110592;27;20050;-82
2023/07/20 03:17:21;;;;;;;3.90;2.05;;;;;;;23.57;42.84;98163.34;2107528;27;20047;-83
2023/07/20 03:18:22;;;;;;;4.22;1.90;;;;;;;23.81;42.50;98160.44;2102927;28;20044;-84
2023/07/20 03:19:24;;;;;;;5.57;1.85;;;;;;;24.26;41.98;98157.53;2102312;28;20056;-84
2023/07/20 03:20:26;;;;;;;3.70;2.50;;;;;;;24.65;41.49;98162.88;2103835;28;20044;-83
2023/07/20 03:21:27;;;;;;;4.30;2.10;;;;;;;24.91;41.09;98149.59;2109570;28;20039;-83
2023/07/20 03:22:28;;;;;;;3.65;1.92;;;;;;;25.15;41.05;98150.91;2112570;27;20137;-84
2023/07/20 03:23:30;;;;;;;4.20;2.65;;;;;;;25.31;40.81;98153.78;2113120;28;20051;-83
2023/07/20 03:24:31;;;;;;;4.78;2.40;;;;;;;25.44;40.73;98153.34;2106379;28;20040;-84
2023/07/20 03:25:33;;;;;;;3.55;2.15;;;;;;;25.51;40.93;98142.25;2104204;28;20046;-83
2023/07/20 03:26:34;;;;;;;3.15;2.22;;;;;;;25.66;40.84;98157.81;2104574;28;20040;-83
2023/07/20 03:27:36;;;;;;;3.50;2.15;;;;;;;25.75;41.05;98156.28;2105842;28;20044;-83
2023/07/20 03:28:37;;;;;;;4.07;2.17;;;;;;;25.76;45.36;98160.63;2104568;28;20551;-85
2023/07/20 03:29:39;;;;;;;4.53;2.72;;;;;;;25.49;44.13;98158.81;2112277;28;20055;-83
2023/07/20 03:30:40;;;;;;;6.78;2.28;;;;;;;25.13;43.84;98157.66;2114232;27;20493;-83
2023/07/20 03:31:42;;;;;;;4.50;2.30;;;;;;;24.75;43.44;98146.72;2114279;27;20043;-83
2023/07/20 03:32:42;;;;;;;3.85;2.33;;;;;;;24.43;42.98;98154.81;2113031;28;20043;-83
2023/07/20 03:33:43;;;;;;;3.05;2.08;;;;;;;24.12;42.42;98148.13;2114699;28;20070;-83
2023/07/20 03:34:45;;;;;;;6.03;1.88;;;;;;;23.99;42.15;98151.22;2112861;28;21766;-83
2023/07/20 03:35:47;;;;;;;4.18;2.10;;;;;;;23.86;41.82;98145.09;2113441;28;20225;-83
2023/07/20 03:36:49;;;;;;;5.15;2.13;;;;;;;23.66;41.66;98149.38;2104828;28;20543;-83
2023/07/20 03:37:50;;;;;;;2.72;2.00;;;;;;;23.86;41.67;98150.50;2105934;28;20048;-84
2023/07/20 03:38:51;;;;;;;3.17;1.63;;;;;;;24.34;41.44;98150.84;2113848;28;20106;-83
2023/07/20 03:39:52;;;;;;;7.90;2.17;;;;;;;24.71;40.52;98140.19;2113535;27;20120;-85
2023/07/20 03:40:55;;;;;;;3.88;2.30;;;;;;;24.99;39.99;98141.00;2105721;28;20666;-83
2023/07/20 03:41:57;;;;;;;5.35;2.20;;;;;;;25.30;40.07;98146.72;2104768;28;20048;-83
2023/07/20 03:42:59;;;;;;;7.35;1.90;;;;;;;25.51;39.91;98147.69;2108691;28;20051;-84
2023/07/20 03:44:00;;;;;;;3.72;2.20;;;;;;;25.60;39.84;98144.25;2107639;28;20498;-83
2023/07/20 03:45:02;;;;;;;5.40;2.15;;;;;;;25.72;39.75;98151.38;2114037;27;20043;-83
2023/07/20 03:46:06;;;;;;;2.92;1.98;;;;;;;25.80;40.17;98143.53;2115245;27;20054;-83
2023/07/20 03:47:09;;;;;;;7.43;2.38;;;;;;;25.87;39.97;98140.63;2114524;28;20059;-83
2023/07/20 03:48:09;;;;;;;12.13;2.28;;;;;;;25.90;42.39;98150.94;2114692;27;20445;-83
2023/07/20 03:49:11;;;;;;;6.20;2.30;;;;;;;25.57;41.96;98146.63;2115230;27;20051;-84
2023/07/20 03:50:12;;;;;;;2.80;2.05;;;;;;;25.26;43.58;98157.25;2113904;27;20047;-84
2023/07/20 03:51:15;;;;;;;10.57;3.22;;;;;;;24.90;43.88;98143.34;2114612;28;20576;-84
2023/07/20 03:52:16;;;;;;;5.30;1.95;;;;;;;24.79;44.51;98154.34;2113277;27;20024;-83
2023/07/20 03:53:18;;;;;;;2.30;1.85;;;;;;;24.68;44.48;98156.97;2115191;28;20047;-84
2023/07/20 03:54:37;;;;;;;4.20;2.28;;;;;;;24.65;44.87;98149.31;2111710;28;20051;-83
2023/07/20 03:55:40;;;;;;;5.25;2.50;;;;;;;24.58;45.29;98162.28;2116445;27;20130;-83
2023/07/20 03:56:41;;;;;;;5.38;1.55;;;;;;;24.48;45.53;98152.13;2117517;28;20043;-85
2023/07/20 03:57:43;;;;;;;4.32;2.28;;;;;;;24.50;45.67;98165.44;2112228;28;20160;-83
2023/07/20 03:58:44;;;;;;;3.17;2.78;;;;;;;24.43;45.48;98159.34;2111774;28;20506;-83
2023/07/20 03:59:47;;;;;;;6.85;2.35;;;;;;;24.38;45.70;98157.41;2109482;28;20043;-83
2023/07/20 04:00:50;;;;;;;2.55;2.15;;;;;;;24.41;45.84;98166.94;2111872;28;20076;-83
2023/07/20 04:01:52;;;;;;;4.13;2.33;;;;;;;24.42;45.62;98157.72;2111636;28;20062;-82
2023/07/20 04:02:53;;;;;;;5.47;2.40;;;;;;;24.40;45.91;98166.09;2108963;28;21458;-84
2023/07/20 04:03:55;;;;;;;4.32;2.53;;;;;;;24.34;46.11;98161.69;2101048;28;20056;-82
2023/07/20 04:04:56;;;;;;;3.08;2.20;;;;;;;24.33;46.14;98170.91;2111352;28;20533;-83
2023/07/20 04:05:57;;;;;;;5.90;2.00;;;;;;;24.29;46.30;98167.03;2112667;28;20056;-83
2023/07/20 04:07:00;;;;;;;4.95;2.55;;;;;;;24.25;46.38;98163.22;2110081;28;20047;-84
2023/07/20 04:08:01;;;;;;;2.90;2.22;;;;;;;24.20;46.37;98155.81;2110998;28;20111;-83
2023/07/20 04:09:04;;;;;;;4.38;1.75;;;;;;;24.21;46.44;98159.34;2112516;28;20058;-83
2023/07/20 04:10:07;;;;;;;6.43;1.75;;;;;;;24.17;46.47;98167.16;2112291;27;20510;-83
2023/07/20 04:11:07;;;;;;;5.68;2.13;;;;;;;24.16;46.37;98167.44;2115292;28;20039;-83
2023/07/20 04:12:09;;;;;;;3.53;2.15;;;;;;;24.16;46.38;98162.81;2109220;28;20047;-84
2023/07/20 04:13:11;;;;;;;4.63;1.85;;;;;;;24.15;46.18;98160.34;2111544;27;20063;-83
2023/07/20 04:14:13;;;;;;;2.42;1.95;;;;;;;24.12;46.48;98153.53;2113393;28;20043;-85
2023/07/20 04:15:14;;;;;;;4.82;2.38;;;;;;;24.09;46.33;98156.75;2113154;28;20043;-85
2023/07/20 04:16:15;;;;;;;3.50;2.25;;;;;;;24.14;46.53;98164.16;2112627;27;20061;-83
2023/07/20 04:17:18;;;;;;;5.95;2.92;;;;;;;24.08;46.43;98157.84;2112273;28;20173;-83
2023/07/20 04:18:19;;;;;;;3.47;2.08;;;;;;;24.11;46.25;98161.94;2112042;28;20048;-83
2023/07/20 04:19:21;;;;;;;4.95;1.98;;;;;;;24.08;46.37;98163.25;2111972;28;20039;-83
2023/07/20 04:20:22;;;;;;;4.03;1.85;;;;;;;24.06;46.37;98165.41;2109171;28;20044;-84
2023/07/20 04:21:24;;;;;;;6.57;2.20;;;;;;;24.09;46.17;98164.88;2097655;28;20044;-86
2023/07/20 04:22:27;;;;;;;3.10;1.95;;;;;;;24.06;46.45;98174.34;2103105;28;20063;-83
2023/07/20 04:23:28;;;;;;;4.63;2.63;;;;;;;24.04;45.99;98162.09;2100740;28;20044;-84
2023/07/20 04:24:29;;;;;;;2.33;1.70;;;;;;;24.03;45.80;98160.47;2105384;28;20051;-84
2023/07/20 04:25:38;;;;;;;3.92;2.08;;;;;;;24.01;46.12;98157.19;2103630;28;20083;-84
2023/07/20 04:26:39;;;;;;;6.28;2.55;;;;;;;23.94;46.25;98160.09;2104278;28;20081;-83
2023/07/20 04:27:41;;;;;;;6.35;2.83;;;;;;;23.94;45.82;98162.00;2110074;27;20056;-83
2023/07/20 04:28:42;;;;;;;4.35;2.28;;;;;;;23.92;46.02;98164.94;2111458;28;20039;-83
2023/07/20 04:29:44;;;;;;;3.05;1.70;;;;;;;23.94;45.86;98162.00;2110034;27;20063;-84
2023/07/20 04:30:45;;;;;;;4.28;2.83;;;;;;;23.90;45.88;98158.94;2111014;28;20043;-83
2023/07/20 04:31:47;;;;;;;3.28;2.03;;;;;;;23.92;45.80;98164.13;2112436;27;20505;-83
2023/07/20 04:32:47;;;;;;;2.45;1.90;;;;;;;23.91;45.73;98167.91;2111679;28;20048;-83
2023/07/20 04:33:49;;;;;;;2.72;2.30;;;;;;;23.85;46.03;98167.03;2112381;27;20057;-85
2023/07/20 04:34:50;;;;;;;5.80;2.10;;;;;;;23.81;46.01;98168.56;2112412;27;20083;-83
2023/07/20 04:35:53;;;;;;;4.10;1.88;;;;;;;23.82;45.93;98165.63;2112258;28;20294;-83
2023/07/20 04:36:53;;;;;;;2.88;1.70;;;;;;;23.83;45.75;98167.25;2112105;28;20048;-83
2023/07/20 04:37:57;;;;;;;5.05;2.42;;;;;;;24.15;45.45;98169.28;2110709;27;20092;-83
2023/07/20 04:38:57;;;;;;;4.10;1.58;;;;;;;24.52;44.93;98177.66;2113636;28;20047;-83
2023/07/20 04:39:59;;;;;;;3.17;2.20;;;;;;;24.80;44.34;98181.22;2108648;28;20047;-83
2023/07/20 04:41:00;;;;;;;2.15;1.95;;;;;;;25.00;44.04;98175.19;2113934;28;20078;-83
2023/07/20 04:42:01;;;;;;;4.72;2.13;;;;;;;25.23;43.64;98178.69;2111883;27;20065;-84
2023/07/20 04:43:02;;;;;;;2.70;2.50;;;;;;;25.39;43.23;98172.31;2107586;28;20521;-84
2023/07/20 04:44:05;;;;;;;4.60;2.17;;;;;;;25.47;43.08;98185.41;2103621;28;20054;-83
2023/07/20 04:45:06;;;;;;;3.50;1.75;;;;;;;25.06;42.42;98178.78;2101915;28;20067;-83
2023/07/20 04:46:08;;;;;;;2.70;1.65;;;;;;;24.60;42.43;98179.13;2106798;28;20051;-84
2023/07/20 04:47:09;;;;;;;3.50;2.00;;;;;;;24.26;42.51;98181.09;2110185;27;20055;-83
2023/07/20 04:48:12;;;;;;;8.68;2.28;;;;;;;23.96;42.28;98182.34;2108911;27;20257;-85
2023/07/20 04:49:13;;;;;;;5.90;1.77;;;;;;;23.85;42.35;98185.97;2104863;28;20044;-82
2023/07/20 04:50:15;;;;;;;10.82;3.15;;;;;;;23.71;41.71;98193.63;2103493;28;20036;-83
2023/07/20 04:51:20;;;;;;;4.10;1.92;;;;;;;23.55;41.86;98187.09;2103432;28;20072;-84
2023/07/20 04:52:22;;;;;;;5.43;3.40;;;;;;;24.04;41.35;98181.91;2108991;28;20452;-84
2023/07/20 04:53:24;;;;;;;6.32;2.10;;;;;;;24.47;41.32;98187.63;2112446;28;20040;-82
2023/07/20 04:54:26;;;;;;;9.02;2.20;;;;;;;24.73;40.83;98176.00;2112803;28;20039;-83
2023/07/20 04:55:27;;;;;;;4.32;2.10;;;;;;;24.96;40.83;98177.59;2111670;28;20047;-84